sensor_id;sensor_type;location;lat;lon;timestamp;temperature;humidity
9486;DHT22;4781;48.776;9.200;2022-09-09T00:00:53;15.60;99.90
9486;DHT22;4781;48.776;9.200;2022-09-09T00:03:26;15.60;99.90
9486;DHT22;4781;48.776;9.200;2022-09-09T00:05:58;15.60;99.90
9486;DHT22;4781;48.776;9.200;2022-09-09T00:08:52;15.60;99.90
9486;DHT22;4781;48.776;9.200;2022-09-09T00:11:41;15.70;99.90
9486;DHT22;4781;48.776;9.200;2022-09-09T00:20:36;15.70;99.90
9486;DHT22;4781;48.776;9.200;2022-09-09T00:23:38;15.70;99.90
9486;DHT22;4781;48.776;9.200;2022-09-09T00:26:04;15.70;99.90
9486;DHT22;4781;48.776;9.200;2022-09-09T00:29:03;15.80;99.90
9486;DHT22;4781;48.776;9.200;2022-09-09T00:31:41;15.90;99.90
9486;DHT22;4781;48.776;9.200;2022-09-09T00:34:29;16.00;99.90
9486;DHT22;4781;48.776;9.200;2022-09-09T00:36:57;16.00;99.90
9486;DHT22;4781;48.776;9.200;2022-09-09T00:39:31;16.00;99.90
9486;DHT22;4781;48.776;9.200;2022-09-09T00:42:41;16.00;99.90
9486;DHT22;4781;48.776;9.200;2022-09-09T00:44:56;16.10;99.90
9486;DHT22;4781;48.776;9.200;2022-09-09T00:56:09;16.40;99.90
9486;DHT22;4781;48.776;9.200;2022-09-09T00:58:43;16.50;99.90
9486;DHT22;4781;48.776;9.200;2022-09-09T01:01:16;16.40;99.90
9486;DHT22;4781;48.776;9.200;2022-09-09T01:03:55;16.50;99.90
9486;DHT22;4781;48.776;9.200;2022-09-09T01:06:30;16.60;99.90
9486;DHT22;4781;48.776;9.200;2022-09-09T01:09:15;16.70;99.90
9486;DHT22;4781;48.776;9.200;2022-09-09T01:14:55;16.60;99.90
9486;DHT22;4781;48.776;9.200;2022-09-09T01:17:32;16.60;99.90
9486;DHT22;4781;48.776;9.200;2022-09-09T01:28:21;16.40;99.90
9486;DHT22;4781;48.776;9.200;2022-09-09T01:30:51;16.30;99.90
9486;DHT22;4781;48.776;9.200;2022-09-09T01:33:21;16.40;99.90
9486;DHT22;4781;48.776;9.200;2022-09-09T01:35:55;16.30;99.90
9486;DHT22;4781;48.776;9.200;2022-09-09T01:38:28;16.50;99.90
9486;DHT22;4781;48.776;9.200;2022-09-09T01:40:57;16.60;99.90
9486;DHT22;4781;48.776;9.200;2022-09-09T01:43:27;16.60;99.90
9486;DHT22;4781;48.776;9.200;2022-09-09T01:45:58;16.70;99.90
9486;DHT22;4781;48.776;9.200;2022-09-09T01:48:28;16.70;99.90
9486;DHT22;4781;48.776;9.200;2022-09-09T01:50:56;16.70;99.90
9486;DHT22;4781;48.776;9.200;2022-09-09T01:53:25;16.60;99.90
9486;DHT22;4781;48.776;9.200;2022-09-09T01:56:26;16.60;99.90
9486;DHT22;4781;48.776;9.200;2022-09-09T02:02:26;16.40;99.90
9486;DHT22;4781;48.776;9.200;2022-09-09T02:04:48;16.30;99.90
9486;DHT22;4781;48.776;9.200;2022-09-09T02:10:15;16.30;99.90
9486;DHT22;4781;48.776;9.200;2022-09-09T02:12:55;16.30;99.90
9486;DHT22;4781;48.776;9.200;2022-09-09T02:18:30;16.40;99.90
9486;DHT22;4781;48.776;9.200;2022-09-09T02:21:02;16.50;99.90
9486;DHT22;4781;48.776;9.200;2022-09-09T02:23:32;16.40;99.90
9486;DHT22;4781;48.776;9.200;2022-09-09T02:26:02;16.40;99.90
9486;DHT22;4781;48.776;9.200;2022-09-09T02:28:32;16.30;99.90
9486;DHT22;4781;48.776;9.200;2022-09-09T02:31:02;16.40;99.90
9486;DHT22;4781;48.776;9.200;2022-09-09T02:33:37;16.30;99.90
9486;DHT22;4781;48.776;9.200;2022-09-09T02:36:07;16.20;99.90
9486;DHT22;4781;48.776;9.200;2022-09-09T02:38:40;16.20;99.90
9486;DHT22;4781;48.776;9.200;2022-09-09T02:41:12;16.10;99.90
9486;DHT22;4781;48.776;9.200;2022-09-09T02:43:40;16.10;99.90
9486;DHT22;4781;48.776;9.200;2022-09-09T02:46:24;16.00;99.90
9486;DHT22;4781;48.776;9.200;2022-09-09T02:49:40;16.00;99.90
9486;DHT22;4781;48.776;9.200;2022-09-09T02:52:14;15.90;99.90
9486;DHT22;4781;48.776;9.200;2022-09-09T02:54:43;15.80;99.90
9486;DHT22;4781;48.776;9.200;2022-09-09T02:57:16;15.80;99.90
9486;DHT22;4781;48.776;9.200;2022-09-09T02:59:49;15.80;99.90
9486;DHT22;4781;48.776;9.200;2022-09-09T03:02:19;15.70;99.90
9486;DHT22;4781;48.776;9.200;2022-09-09T03:04:48;15.70;99.90
9486;DHT22;4781;48.776;9.200;2022-09-09T03:07:19;15.70;99.90
9486;DHT22;4781;48.776;9.200;2022-09-09T03:09:48;15.70;99.90
9486;DHT22;4781;48.776;9.200;2022-09-09T03:12:16;15.70;99.90
9486;DHT22;4781;48.776;9.200;2022-09-09T03:14:44;15.60;99.90
9486;DHT22;4781;48.776;9.200;2022-09-09T03:17:13;15.60;99.90
9486;DHT22;4781;48.776;9.200;2022-09-09T03:19:41;15.60;99.90
9486;DHT22;4781;48.776;9.200;2022-09-09T03:22:11;15.60;99.90
9486;DHT22;4781;48.776;9.200;2022-09-09T03:24:39;15.70;99.90
9486;DHT22;4781;48.776;9.200;2022-09-09T03:27:08;15.70;99.90
9486;DHT22;4781;48.776;9.200;2022-09-09T03:29:36;15.80;99.90
9486;DHT22;4781;48.776;9.200;2022-09-09T03:32:05;15.80;99.90
9486;DHT22;4781;48.776;9.200;2022-09-09T03:34:33;15.80;99.90
9486;DHT22;4781;48.776;9.200;2022-09-09T03:37:04;15.80;99.90
9486;DHT22;4781;48.776;9.200;2022-09-09T03:39:32;15.90;99.90
9486;DHT22;4781;48.776;9.200;2022-09-09T03:42:01;15.90;99.90
9486;DHT22;4781;48.776;9.200;2022-09-09T03:44:31;15.90;99.90
9486;DHT22;4781;48.776;9.200;2022-09-09T03:46:59;16.00;99.90
9486;DHT22;4781;48.776;9.200;2022-09-09T03:49:27;16.10;99.90
9486;DHT22;4781;48.776;9.200;2022-09-09T03:51:56;16.20;99.90
9486;DHT22;4781;48.776;9.200;2022-09-09T03:54:25;16.20;99.90
9486;DHT22;4781;48.776;9.200;2022-09-09T03:56:54;16.20;99.90
9486;DHT22;4781;48.776;9.200;2022-09-09T03:59:22;16.20;99.90
9486;DHT22;4781;48.776;9.200;2022-09-09T04:01:51;16.20;99.90
9486;DHT22;4781;48.776;9.200;2022-09-09T04:04:21;16.20;99.90
9486;DHT22;4781;48.776;9.200;2022-09-09T04:06:49;16.20;99.90
9486;DHT22;4781;48.776;9.200;2022-09-09T04:09:17;16.20;99.90
9486;DHT22;4781;48.776;9.200;2022-09-09T04:11:46;16.10;99.90
9486;DHT22;4781;48.776;9.200;2022-09-09T04:14:16;16.10;99.90
9486;DHT22;4781;48.776;9.200;2022-09-09T04:16:44;16.10;99.90
9486;DHT22;4781;48.776;9.200;2022-09-09T04:19:13;16.10;99.90
9486;DHT22;4781;48.776;9.200;2022-09-09T04:21:42;16.10;99.90
9486;DHT22;4781;48.776;9.200;2022-09-09T04:24:11;16.00;99.90
9486;DHT22;4781;48.776;9.200;2022-09-09T04:26:39;15.90;99.90
9486;DHT22;4781;48.776;9.200;2022-09-09T04:29:08;15.90;99.90
9486;DHT22;4781;48.776;9.200;2022-09-09T04:31:37;15.90;99.90
9486;DHT22;4781;48.776;9.200;2022-09-09T04:34:07;15.90;99.90
9486;DHT22;4781;48.776;9.200;2022-09-09T04:36:36;15.90;99.90
9486;DHT22;4781;48.776;9.200;2022-09-09T04:39:06;15.90;99.90
9486;DHT22;4781;48.776;9.200;2022-09-09T04:41:35;15.90;99.90
9486;DHT22;4781;48.776;9.200;2022-09-09T04:44:04;15.90;99.90
9486;DHT22;4781;48.776;9.200;2022-09-09T04:46:32;15.90;99.90
9486;DHT22;4781;48.776;9.200;2022-09-09T04:49:04;15.90;99.90
9486;DHT22;4781;48.776;9.200;2022-09-09T04:51:32;15.80;99.90
9486;DHT22;4781;48.776;9.200;2022-09-09T04:54:00;15.80;99.90
9486;DHT22;4781;48.776;9.200;2022-09-09T04:56:29;15.70;99.90
9486;DHT22;4781;48.776;9.200;2022-09-09T04:58:57;15.70;99.90
9486;DHT22;4781;48.776;9.200;2022-09-09T05:01:26;15.60;99.90
9486;DHT22;4781;48.776;9.200;2022-09-09T05:03:54;15.50;99.90
9486;DHT22;4781;48.776;9.200;2022-09-09T05:06:23;15.50;99.90
9486;DHT22;4781;48.776;9.200;2022-09-09T05:08:51;15.50;99.90
9486;DHT22;4781;48.776;9.200;2022-09-09T05:11:22;15.50;99.90
9486;DHT22;4781;48.776;9.200;2022-09-09T05:13:52;15.50;99.90
9486;DHT22;4781;48.776;9.200;2022-09-09T05:16:21;15.50;99.90
9486;DHT22;4781;48.776;9.200;2022-09-09T05:18:50;15.50;99.90
9486;DHT22;4781;48.776;9.200;2022-09-09T05:21:20;15.60;99.90
9486;DHT22;4781;48.776;9.200;2022-09-09T05:23:49;15.60;99.90
9486;DHT22;4781;48.776;9.200;2022-09-09T05:26:19;15.70;99.90
9486;DHT22;4781;48.776;9.200;2022-09-09T05:28:48;15.80;99.90
9486;DHT22;4781;48.776;9.200;2022-09-09T05:31:18;15.80;99.90
9486;DHT22;4781;48.776;9.200;2022-09-09T05:33:47;15.90;99.90
9486;DHT22;4781;48.776;9.200;2022-09-09T05:36:20;15.90;99.90
9486;DHT22;4781;48.776;9.200;2022-09-09T05:38:49;16.00;99.90
9486;DHT22;4781;48.776;9.200;2022-09-09T05:41:20;16.00;99.90
9486;DHT22;4781;48.776;9.200;2022-09-09T05:43:49;16.10;99.90
9486;DHT22;4781;48.776;9.200;2022-09-09T05:46:19;16.00;99.90
9486;DHT22;4781;48.776;9.200;2022-09-09T05:48:49;16.00;99.90
9486;DHT22;4781;48.776;9.200;2022-09-09T05:51:21;16.00;99.90
9486;DHT22;4781;48.776;9.200;2022-09-09T05:53:51;16.00;99.90
9486;DHT22;4781;48.776;9.200;2022-09-09T05:56:23;16.10;99.90
9486;DHT22;4781;48.776;9.200;2022-09-09T05:58:53;16.20;99.90
9486;DHT22;4781;48.776;9.200;2022-09-09T06:01:31;16.30;99.90
9486;DHT22;4781;48.776;9.200;2022-09-09T06:04:01;16.30;99.90
9486;DHT22;4781;48.776;9.200;2022-09-09T06:06:35;16.30;99.90
9486;DHT22;4781;48.776;9.200;2022-09-09T06:09:07;16.40;99.90
9486;DHT22;4781;48.776;9.200;2022-09-09T06:11:38;16.50;99.90
9486;DHT22;4781;48.776;9.200;2022-09-09T06:14:07;16.50;99.90
9486;DHT22;4781;48.776;9.200;2022-09-09T06:16:36;16.50;99.90
9486;DHT22;4781;48.776;9.200;2022-09-09T06:19:04;16.50;99.90
9486;DHT22;4781;48.776;9.200;2022-09-09T06:21:35;16.50;99.90
9486;DHT22;4781;48.776;9.200;2022-09-09T06:24:04;16.40;99.90
9486;DHT22;4781;48.776;9.200;2022-09-09T06:26:35;16.40;99.90
9486;DHT22;4781;48.776;9.200;2022-09-09T06:29:07;16.40;99.90
9486;DHT22;4781;48.776;9.200;2022-09-09T06:31:37;16.40;99.90
9486;DHT22;4781;48.776;9.200;2022-09-09T06:34:07;16.40;99.90
9486;DHT22;4781;48.776;9.200;2022-09-09T06:36:37;16.50;99.90
9486;DHT22;4781;48.776;9.200;2022-09-09T06:39:07;16.50;99.90
9486;DHT22;4781;48.776;9.200;2022-09-09T06:41:37;16.50;99.90
9486;DHT22;4781;48.776;9.200;2022-09-09T06:44:05;16.60;99.90
9486;DHT22;4781;48.776;9.200;2022-09-09T06:46:34;16.60;99.90
9486;DHT22;4781;48.776;9.200;2022-09-09T06:49:02;16.70;99.90
9486;DHT22;4781;48.776;9.200;2022-09-09T06:51:33;16.70;99.90
9486;DHT22;4781;48.776;9.200;2022-09-09T06:54:03;16.80;99.90
9486;DHT22;4781;48.776;9.200;2022-09-09T06:56:40;16.80;99.90
9486;DHT22;4781;48.776;9.200;2022-09-09T06:59:05;16.80;99.90
9486;DHT22;4781;48.776;9.200;2022-09-09T07:01:37;16.80;99.90
9486;DHT22;4781;48.776;9.200;2022-09-09T07:04:11;16.90;99.90
9486;DHT22;4781;48.776;9.200;2022-09-09T07:06:41;16.90;99.90
9486;DHT22;4781;48.776;9.200;2022-09-09T07:09:13;17.10;99.90
9486;DHT22;4781;48.776;9.200;2022-09-09T07:11:44;17.10;99.90
9486;DHT22;4781;48.776;9.200;2022-09-09T07:14:14;17.10;99.90
9486;DHT22;4781;48.776;9.200;2022-09-09T07:16:44;17.20;99.90
9486;DHT22;4781;48.776;9.200;2022-09-09T07:19:13;17.30;99.90
9486;DHT22;4781;48.776;9.200;2022-09-09T07:21:43;17.30;99.90
9486;DHT22;4781;48.776;9.200;2022-09-09T07:24:11;17.40;99.90
9486;DHT22;4781;48.776;9.200;2022-09-09T07:26:40;17.50;99.90
9486;DHT22;4781;48.776;9.200;2022-09-09T07:29:09;17.70;99.90
9486;DHT22;4781;48.776;9.200;2022-09-09T07:31:39;17.80;99.90
9486;DHT22;4781;48.776;9.200;2022-09-09T07:34:08;17.80;99.90
9486;DHT22;4781;48.776;9.200;2022-09-09T07:36:38;17.80;99.90
9486;DHT22;4781;48.776;9.200;2022-09-09T07:39:10;17.90;99.90
9486;DHT22;4781;48.776;9.200;2022-09-09T07:41:48;17.90;99.90
9486;DHT22;4781;48.776;9.200;2022-09-09T07:44:20;18.00;99.90
9486;DHT22;4781;48.776;9.200;2022-09-09T07:46:50;18.10;99.90
9486;DHT22;4781;48.776;9.200;2022-09-09T07:49:18;18.30;99.90
9486;DHT22;4781;48.776;9.200;2022-09-09T07:51:47;18.50;99.90
9486;DHT22;4781;48.776;9.200;2022-09-09T07:54:17;18.50;99.90
9486;DHT22;4781;48.776;9.200;2022-09-09T07:56:50;18.40;99.90
9486;DHT22;4781;48.776;9.200;2022-09-09T07:59:19;18.40;99.90
9486;DHT22;4781;48.776;9.200;2022-09-09T08:01:50;18.40;99.90
9486;DHT22;4781;48.776;9.200;2022-09-09T08:04:22;18.80;99.90
9486;DHT22;4781;48.776;9.200;2022-09-09T08:06:55;19.30;99.90
9486;DHT22;4781;48.776;9.200;2022-09-09T08:09:24;19.40;99.90
9486;DHT22;4781;48.776;9.200;2022-09-09T08:11:56;19.60;99.90
9486;DHT22;4781;48.776;9.200;2022-09-09T08:14:25;19.80;99.90
9486;DHT22;4781;48.776;9.200;2022-09-09T08:16:53;20.00;99.90
9486;DHT22;4781;48.776;9.200;2022-09-09T08:19:22;20.20;99.90
9486;DHT22;4781;48.776;9.200;2022-09-09T08:21:51;20.50;99.90
9486;DHT22;4781;48.776;9.200;2022-09-09T08:24:20;20.50;99.90
9486;DHT22;4781;48.776;9.200;2022-09-09T08:26:49;20.40;99.90
9486;DHT22;4781;48.776;9.200;2022-09-09T08:29:18;20.30;99.90
9486;DHT22;4781;48.776;9.200;2022-09-09T08:31:51;20.60;99.90
9486;DHT22;4781;48.776;9.200;2022-09-09T08:34:21;21.00;99.90
9486;DHT22;4781;48.776;9.200;2022-09-09T08:36:51;21.10;99.90
9486;DHT22;4781;48.776;9.200;2022-09-09T08:39:21;20.90;99.90
9486;DHT22;4781;48.776;9.200;2022-09-09T08:50:36;21.60;99.90
9486;DHT22;4781;48.776;9.200;2022-09-09T08:53:21;21.60;99.90
9486;DHT22;4781;48.776;9.200;2022-09-09T08:55:54;22.10;99.90
9486;DHT22;4781;48.776;9.200;2022-09-09T08:58:38;22.00;99.90
9486;DHT22;4781;48.776;9.200;2022-09-09T09:06:54;21.80;99.90
9486;DHT22;4781;48.776;9.200;2022-09-09T09:09:55;22.00;99.90
9486;DHT22;4781;48.776;9.200;2022-09-09T09:12:27;21.80;99.90
9486;DHT22;4781;48.776;9.200;2022-09-09T09:14:59;21.70;99.90
9486;DHT22;4781;48.776;9.200;2022-09-09T09:17:29;21.40;99.90
9486;DHT22;4781;48.776;9.200;2022-09-09T09:19:59;21.10;99.90
9486;DHT22;4781;48.776;9.200;2022-09-09T09:22:41;21.00;99.90
9486;DHT22;4781;48.776;9.200;2022-09-09T09:25:19;20.80;99.90
9486;DHT22;4781;48.776;9.200;2022-09-09T09:30:39;20.30;99.90
9486;DHT22;4781;48.776;9.200;2022-09-09T09:36:08;19.50;99.90
9486;DHT22;4781;48.776;9.200;2022-09-09T09:38:37;18.80;99.90
9486;DHT22;4781;48.776;9.200;2022-09-09T09:41:06;18.00;99.90
9486;DHT22;4781;48.776;9.200;2022-09-09T09:43:36;17.70;99.90
9486;DHT22;4781;48.776;9.200;2022-09-09T09:46:19;18.10;99.90
9486;DHT22;4781;48.776;9.200;2022-09-09T09:49:03;18.90;99.90
9486;DHT22;4781;48.776;9.200;2022-09-09T09:51:33;19.30;99.90
9486;DHT22;4781;48.776;9.200;2022-09-09T09:54:38;19.80;99.90
9486;DHT22;4781;48.776;9.200;2022-09-09T09:56:54;20.20;99.90
9486;DHT22;4781;48.776;9.200;2022-09-09T09:59:32;20.40;99.90
9486;DHT22;4781;48.776;9.200;2022-09-09T10:04:46;20.90;99.90
9486;DHT22;4781;48.776;9.200;2022-09-09T10:07:19;21.50;99.90
9486;DHT22;4781;48.776;9.200;2022-09-09T10:09:56;21.70;99.90
9486;DHT22;4781;48.776;9.200;2022-09-09T10:12:42;22.00;99.90
9486;DHT22;4781;48.776;9.200;2022-09-09T10:15:38;22.30;99.90
9486;DHT22;4781;48.776;9.200;2022-09-09T10:33:28;22.50;99.90
9486;DHT22;4781;48.776;9.200;2022-09-09T10:36:08;22.20;99.90
9486;DHT22;4781;48.776;9.200;2022-09-09T10:38:49;22.30;99.90
9486;DHT22;4781;48.776;9.200;2022-09-09T10:44:42;22.10;99.90
9486;DHT22;4781;48.776;9.200;2022-09-09T10:56:21;21.60;99.90
9486;DHT22;4781;48.776;9.200;2022-09-09T10:59:02;21.20;99.90
9486;DHT22;4781;48.776;9.200;2022-09-09T11:02:27;21.20;99.90
9486;DHT22;4781;48.776;9.200;2022-09-09T11:04:22;21.60;99.90
9486;DHT22;4781;48.776;9.200;2022-09-09T11:07:00;22.00;99.90
9486;DHT22;4781;48.776;9.200;2022-09-09T11:09:35;22.60;99.90
9486;DHT22;4781;48.776;9.200;2022-09-09T11:12:11;22.40;99.90
9486;DHT22;4781;48.776;9.200;2022-09-09T11:14:53;21.80;99.90
9486;DHT22;4781;48.776;9.200;2022-09-09T11:17:31;21.40;99.90
9486;DHT22;4781;48.776;9.200;2022-09-09T11:19:57;21.90;99.90
9486;DHT22;4781;48.776;9.200;2022-09-09T11:22:34;22.20;99.90
9486;DHT22;4781;48.776;9.200;2022-09-09T11:25:26;22.10;99.90
9486;DHT22;4781;48.776;9.200;2022-09-09T11:28:19;21.80;99.90
9486;DHT22;4781;48.776;9.200;2022-09-09T11:31:02;21.30;99.90
9486;DHT22;4781;48.776;9.200;2022-09-09T11:33:54;21.10;99.90
9486;DHT22;4781;48.776;9.200;2022-09-09T11:42:19;20.50;99.90
9486;DHT22;4781;48.776;9.200;2022-09-09T11:44:48;20.30;99.90
9486;DHT22;4781;48.776;9.200;2022-09-09T11:47:30;20.20;99.90
9486;DHT22;4781;48.776;9.200;2022-09-09T11:52:47;19.70;99.90
9486;DHT22;4781;48.776;9.200;2022-09-09T11:55:28;19.70;99.90
9486;DHT22;4781;48.776;9.200;2022-09-09T11:58:01;20.00;99.90
9486;DHT22;4781;48.776;9.200;2022-09-09T12:00:43;20.30;99.90
9486;DHT22;4781;48.776;9.200;2022-09-09T12:03:34;20.20;99.90
9486;DHT22;4781;48.776;9.200;2022-09-09T12:06:15;20.30;99.90
9486;DHT22;4781;48.776;9.200;2022-09-09T12:09:06;20.30;99.90
9486;DHT22;4781;48.776;9.200;2022-09-09T12:11:37;21.10;99.90
9486;DHT22;4781;48.776;9.200;2022-09-09T12:14:18;21.10;99.90
9486;DHT22;4781;48.776;9.200;2022-09-09T12:16:39;20.60;99.90
9486;DHT22;4781;48.776;9.200;2022-09-09T12:24:47;20.20;99.90
9486;DHT22;4781;48.776;9.200;2022-09-09T12:27:20;21.10;99.90
9486;DHT22;4781;48.776;9.200;2022-09-09T12:30:01;21.90;99.90
9486;DHT22;4781;48.776;9.200;2022-09-09T12:32:31;22.20;99.90
9486;DHT22;4781;48.776;9.200;2022-09-09T12:35:08;22.10;99.90
9486;DHT22;4781;48.776;9.200;2022-09-09T12:37:44;22.10;99.90
9486;DHT22;4781;48.776;9.200;2022-09-09T12:40:28;22.10;99.90
9486;DHT22;4781;48.776;9.200;2022-09-09T12:43:22;22.40;99.90
9486;DHT22;4781;48.776;9.200;2022-09-09T12:45:47;22.40;99.90
9486;DHT22;4781;48.776;9.200;2022-09-09T12:48:19;22.00;99.90
9486;DHT22;4781;48.776;9.200;2022-09-09T12:50:50;21.70;99.90
9486;DHT22;4781;48.776;9.200;2022-09-09T12:53:27;21.50;99.90
9486;DHT22;4781;48.776;9.200;2022-09-09T12:56:00;21.50;99.90
9486;DHT22;4781;48.776;9.200;2022-09-09T12:58:31;21.40;99.90
9486;DHT22;4781;48.776;9.200;2022-09-09T13:01:00;21.50;99.90
9486;DHT22;4781;48.776;9.200;2022-09-09T13:03:32;21.70;99.90
9486;DHT22;4781;48.776;9.200;2022-09-09T13:06:16;21.60;99.90
9486;DHT22;4781;48.776;9.200;2022-09-09T13:08:54;21.70;99.90
9486;DHT22;4781;48.776;9.200;2022-09-09T13:11:22;21.50;99.90
9486;DHT22;4781;48.776;9.200;2022-09-09T13:13:55;21.20;99.90
9486;DHT22;4781;48.776;9.200;2022-09-09T13:16:32;21.30;99.90
9486;DHT22;4781;48.776;9.200;2022-09-09T13:19:07;21.80;99.90
9486;DHT22;4781;48.776;9.200;2022-09-09T13:21:38;21.80;99.90
9486;DHT22;4781;48.776;9.200;2022-09-09T13:27:03;22.00;99.90
9486;DHT22;4781;48.776;9.200;2022-09-09T13:29:34;22.00;99.90
9486;DHT22;4781;48.776;9.200;2022-09-09T13:32:18;22.10;99.90
9486;DHT22;4781;48.776;9.200;2022-09-09T13:34:55;21.90;99.90
9486;DHT22;4781;48.776;9.200;2022-09-09T13:37:34;21.90;99.90
9486;DHT22;4781;48.776;9.200;2022-09-09T13:40:05;22.40;99.90
9486;DHT22;4781;48.776;9.200;2022-09-09T13:42:37;23.10;99.90
9486;DHT22;4781;48.776;9.200;2022-09-09T13:45:21;23.00;99.90
9486;DHT22;4781;48.776;9.200;2022-09-09T13:47:50;22.60;99.90
9486;DHT22;4781;48.776;9.200;2022-09-09T13:50:28;22.10;99.90
9486;DHT22;4781;48.776;9.200;2022-09-09T13:52:58;21.80;99.90
9486;DHT22;4781;48.776;9.200;2022-09-09T13:55:28;22.00;99.90
9486;DHT22;4781;48.776;9.200;2022-09-09T13:57:59;21.80;99.90
9486;DHT22;4781;48.776;9.200;2022-09-09T14:00:33;21.90;99.90
9486;DHT22;4781;48.776;9.200;2022-09-09T14:03:01;22.30;99.90
9486;DHT22;4781;48.776;9.200;2022-09-09T14:05:32;22.80;99.90
9486;DHT22;4781;48.776;9.200;2022-09-09T14:08:03;22.90;99.90
9486;DHT22;4781;48.776;9.200;2022-09-09T14:10:32;22.50;99.90
9486;DHT22;4781;48.776;9.200;2022-09-09T14:13:02;22.20;99.90
9486;DHT22;4781;48.776;9.200;2022-09-09T14:15:31;22.50;99.90
9486;DHT22;4781;48.776;9.200;2022-09-09T14:17:59;22.90;99.90
9486;DHT22;4781;48.776;9.200;2022-09-09T14:20:28;23.00;99.90
9486;DHT22;4781;48.776;9.200;2022-09-09T14:22:56;23.00;99.90
9486;DHT22;4781;48.776;9.200;2022-09-09T14:25:25;22.60;99.90
9486;DHT22;4781;48.776;9.200;2022-09-09T14:27:53;22.60;99.90
9486;DHT22;4781;48.776;9.200;2022-09-09T14:30:23;22.40;99.90
9486;DHT22;4781;48.776;9.200;2022-09-09T14:32:51;22.20;99.90
9486;DHT22;4781;48.776;9.200;2022-09-09T14:35:19;22.20;99.90
9486;DHT22;4781;48.776;9.200;2022-09-09T14:37:48;22.00;99.90
9486;DHT22;4781;48.776;9.200;2022-09-09T14:40:17;22.00;99.90
9486;DHT22;4781;48.776;9.200;2022-09-09T14:42:45;22.00;99.90
9486;DHT22;4781;48.776;9.200;2022-09-09T14:45:13;21.90;99.90
9486;DHT22;4781;48.776;9.200;2022-09-09T14:47:42;21.80;99.90
9486;DHT22;4781;48.776;9.200;2022-09-09T14:50:11;21.60;99.90
9486;DHT22;4781;48.776;9.200;2022-09-09T14:52:40;21.80;99.90
9486;DHT22;4781;48.776;9.200;2022-09-09T14:55:08;22.20;99.90
9486;DHT22;4781;48.776;9.200;2022-09-09T14:57:37;22.50;99.90
9486;DHT22;4781;48.776;9.200;2022-09-09T15:00:07;23.00;99.90
9486;DHT22;4781;48.776;9.200;2022-09-09T15:02:36;22.60;99.90
9486;DHT22;4781;48.776;9.200;2022-09-09T15:05:05;22.20;99.90
9486;DHT22;4781;48.776;9.200;2022-09-09T15:07:34;22.50;99.90
9486;DHT22;4781;48.776;9.200;2022-09-09T15:10:05;22.80;99.90
9486;DHT22;4781;48.776;9.200;2022-09-09T15:12:33;22.80;99.90
9486;DHT22;4781;48.776;9.200;2022-09-09T15:15:02;22.50;99.70
9486;DHT22;4781;48.776;9.200;2022-09-09T15:17:31;22.20;99.70
9486;DHT22;4781;48.776;9.200;2022-09-09T15:20:00;21.90;99.90
9486;DHT22;4781;48.776;9.200;2022-09-09T15:22:29;21.70;99.90
9486;DHT22;4781;48.776;9.200;2022-09-09T15:24:58;21.50;99.90
9486;DHT22;4781;48.776;9.200;2022-09-09T15:27:26;21.40;99.90
9486;DHT22;4781;48.776;9.200;2022-09-09T15:29:56;21.30;99.90
9486;DHT22;4781;48.776;9.200;2022-09-09T15:32:25;21.40;99.90
9486;DHT22;4781;48.776;9.200;2022-09-09T15:34:53;21.40;99.90
9486;DHT22;4781;48.776;9.200;2022-09-09T15:37:21;21.50;99.90
9486;DHT22;4781;48.776;9.200;2022-09-09T15:39:50;21.60;99.90
9486;DHT22;4781;48.776;9.200;2022-09-09T15:42:18;21.60;99.90
9486;DHT22;4781;48.776;9.200;2022-09-09T15:44:46;21.50;99.90
9486;DHT22;4781;48.776;9.200;2022-09-09T15:47:15;21.50;99.90
9486;DHT22;4781;48.776;9.200;2022-09-09T15:49:43;21.30;99.90
9486;DHT22;4781;48.776;9.200;2022-09-09T15:52:12;21.30;99.90
9486;DHT22;4781;48.776;9.200;2022-09-09T15:54:40;21.10;99.90
9486;DHT22;4781;48.776;9.200;2022-09-09T15:57:12;21.10;99.90
9486;DHT22;4781;48.776;9.200;2022-09-09T15:59:41;20.90;99.90
9486;DHT22;4781;48.776;9.200;2022-09-09T16:02:11;20.90;99.90
9486;DHT22;4781;48.776;9.200;2022-09-09T16:04:39;20.80;99.90
9486;DHT22;4781;48.776;9.200;2022-09-09T16:07:08;20.90;99.90
9486;DHT22;4781;48.776;9.200;2022-09-09T16:09:36;20.80;99.90
9486;DHT22;4781;48.776;9.200;2022-09-09T16:12:05;20.70;99.90
9486;DHT22;4781;48.776;9.200;2022-09-09T16:14:35;20.70;99.90
9486;DHT22;4781;48.776;9.200;2022-09-09T16:17:06;20.70;99.90
9486;DHT22;4781;48.776;9.200;2022-09-09T16:19:34;20.60;99.90
9486;DHT22;4781;48.776;9.200;2022-09-09T16:22:04;20.60;99.90
9486;DHT22;4781;48.776;9.200;2022-09-09T16:24:33;20.60;99.90
9486;DHT22;4781;48.776;9.200;2022-09-09T16:27:01;20.50;99.90
9486;DHT22;4781;48.776;9.200;2022-09-09T16:29:30;20.50;99.90
9486;DHT22;4781;48.776;9.200;2022-09-09T16:31:58;20.40;99.90
9486;DHT22;4781;48.776;9.200;2022-09-09T16:34:26;20.40;99.90
9486;DHT22;4781;48.776;9.200;2022-09-09T16:36:55;20.40;99.90
9486;DHT22;4781;48.776;9.200;2022-09-09T16:39:23;20.40;99.90
9486;DHT22;4781;48.776;9.200;2022-09-09T16:41:52;20.30;99.90
9486;DHT22;4781;48.776;9.200;2022-09-09T16:44:20;20.30;99.90
9486;DHT22;4781;48.776;9.200;2022-09-09T16:46:49;20.20;99.90
9486;DHT22;4781;48.776;9.200;2022-09-09T16:49:18;20.10;99.90
9486;DHT22;4781;48.776;9.200;2022-09-09T16:51:49;19.90;99.90
9486;DHT22;4781;48.776;9.200;2022-09-09T16:54:21;19.80;99.90
9486;DHT22;4781;48.776;9.200;2022-09-09T16:56:51;19.70;99.90
9486;DHT22;4781;48.776;9.200;2022-09-09T16:59:21;19.60;99.90
9486;DHT22;4781;48.776;9.200;2022-09-09T17:01:51;19.20;99.90
9486;DHT22;4781;48.776;9.200;2022-09-09T17:04:22;19.10;99.90
9486;DHT22;4781;48.776;9.200;2022-09-09T17:06:55;19.10;99.90
9486;DHT22;4781;48.776;9.200;2022-09-09T17:09:25;18.90;99.90
9486;DHT22;4781;48.776;9.200;2022-09-09T17:11:58;18.80;99.90
9486;DHT22;4781;48.776;9.200;2022-09-09T17:14:26;18.70;99.90
9486;DHT22;4781;48.776;9.200;2022-09-09T17:16:56;18.60;99.90
9486;DHT22;4781;48.776;9.200;2022-09-09T17:19:25;18.50;99.90
9486;DHT22;4781;48.776;9.200;2022-09-09T17:21:53;18.40;99.90
9486;DHT22;4781;48.776;9.200;2022-09-09T17:24:23;18.40;99.90
9486;DHT22;4781;48.776;9.200;2022-09-09T17:26:52;18.30;99.90
9486;DHT22;4781;48.776;9.200;2022-09-09T17:29:21;18.20;99.90
9486;DHT22;4781;48.776;9.200;2022-09-09T17:31:51;18.10;99.90
9486;DHT22;4781;48.776;9.200;2022-09-09T17:34:19;18.10;99.90
9486;DHT22;4781;48.776;9.200;2022-09-09T17:36:47;18.00;99.90
9486;DHT22;4781;48.776;9.200;2022-09-09T17:39:16;18.00;99.90
9486;DHT22;4781;48.776;9.200;2022-09-09T17:41:44;17.90;99.90
9486;DHT22;4781;48.776;9.200;2022-09-09T17:44:13;17.90;99.90
9486;DHT22;4781;48.776;9.200;2022-09-09T17:46:43;17.90;99.90
9486;DHT22;4781;48.776;9.200;2022-09-09T17:49:13;17.80;99.90
9486;DHT22;4781;48.776;9.200;2022-09-09T17:51:44;17.80;99.90
9486;DHT22;4781;48.776;9.200;2022-09-09T17:54:15;17.80;99.90
9486;DHT22;4781;48.776;9.200;2022-09-09T17:56:45;17.80;99.90
9486;DHT22;4781;48.776;9.200;2022-09-09T17:59:15;17.80;99.90
9486;DHT22;4781;48.776;9.200;2022-09-09T18:01:46;17.80;99.90
9486;DHT22;4781;48.776;9.200;2022-09-09T18:04:17;17.70;99.90
9486;DHT22;4781;48.776;9.200;2022-09-09T18:06:49;17.60;99.90
9486;DHT22;4781;48.776;9.200;2022-09-09T18:09:21;17.60;99.90
9486;DHT22;4781;48.776;9.200;2022-09-09T18:11:53;17.60;99.90
9486;DHT22;4781;48.776;9.200;2022-09-09T18:14:26;17.50;99.90
9486;DHT22;4781;48.776;9.200;2022-09-09T18:16:58;17.50;99.90